createdAt,value
2023-01-10T00:00:40.400Z,83.68
2023-01-10T00:03:09.915Z,83.15
2023-01-10T00:05:38.581Z,82.99
2023-01-10T00:08:07.273Z,83.08
2023-01-10T00:10:34.658Z,83.25
2023-01-10T00:13:20.128Z,84.05
2023-01-10T00:15:47.571Z,84.23
2023-01-10T00:18:14.662Z,83.47
2023-01-10T00:20:41.961Z,84.11
2023-01-10T00:23:09.022Z,83.54
2023-01-10T00:25:36.425Z,83.58
2023-01-10T00:28:20.214Z,83.53
2023-01-10T00:30:55.898Z,83.52
2023-01-10T00:33:24.989Z,83.79
2023-01-10T00:35:52.286Z,83.73
2023-01-10T00:38:19.464Z,83.77
2023-01-10T00:40:46.971Z,83.48
2023-01-10T00:43:32.395Z,83.15
2023-01-10T00:45:59.388Z,83.67
2023-01-10T00:48:26.435Z,83.51
2023-01-10T00:50:53.476Z,83.54
2023-01-10T00:53:21.149Z,84.21
2023-01-10T00:55:48.188Z,84.29
2023-01-10T00:58:16.221Z,84.16
2023-01-10T01:00:47.125Z,84.60
2023-01-10T01:03:14.346Z,84.09
2023-01-10T01:05:43.536Z,84.80
2023-01-10T01:08:12.000Z,85.60
2023-01-10T01:10:39.007Z,85.25
2023-01-10T01:13:25.828Z,85.56
2023-01-10T01:15:53.120Z,85.55
2023-01-10T01:18:21.810Z,85.32
2023-01-10T01:20:54.471Z,84.55
2023-01-10T01:23:21.843Z,84.20
2023-01-10T01:25:53.822Z,84.36
2023-01-10T01:28:23.789Z,84.59
2023-01-10T01:30:51.116Z,84.45
2023-01-10T01:33:18.941Z,84.69
2023-01-10T01:35:47.633Z,85.17
2023-01-10T01:38:15.402Z,84.94
2023-01-10T01:40:42.643Z,84.42
2023-01-10T01:43:28.007Z,84.95
2023-01-10T01:45:55.865Z,85.50
2023-01-10T01:48:28.922Z,85.33
2023-01-10T01:51:08.001Z,85.40
2023-01-10T01:53:41.397Z,85.57
2023-01-10T01:56:20.663Z,85.20
2023-01-10T01:58:53.067Z,84.86
2023-01-10T02:01:21.772Z,84.85
2023-01-10T02:03:54.110Z,85.02
2023-01-10T02:06:25.089Z,84.48
2023-01-10T02:09:10.277Z,84.06
2023-01-10T02:11:37.455Z,84.05
2023-01-10T02:14:06.409Z,83.92
2023-01-10T02:16:33.735Z,83.80
2023-01-10T02:19:00.691Z,84.04
2023-01-10T02:22:01.836Z,83.56
2023-01-10T02:24:37.893Z,83.92
2023-01-10T02:27:28.503Z,84.11
2023-01-10T02:30:35.852Z,84.37
2023-01-10T02:33:42.085Z,84.16
2023-01-10T02:36:26.969Z,83.92
2023-01-10T02:39:03.046Z,84.16
2023-01-10T02:41:52.575Z,83.90
2023-01-10T02:44:24.667Z,83.58
2023-01-10T02:46:52.082Z,83.55
2023-01-10T02:49:19.561Z,83.41
2023-01-10T02:51:46.634Z,83.11
2023-01-10T02:54:20.934Z,83.57
2023-01-10T02:56:56.914Z,83.50
2023-01-10T02:59:48.800Z,83.57
2023-01-10T03:02:34.439Z,83.54
2023-01-10T03:05:23.854Z,83.64
2023-01-10T03:07:50.645Z,83.32
2023-01-10T03:10:25.700Z,83.38
2023-01-10T03:12:58.198Z,83.46
2023-01-10T03:15:29.616Z,83.41
2023-01-10T03:18:01.430Z,83.26
2023-01-10T03:20:33.849Z,82.99
2023-01-10T03:23:03.419Z,83.37
2023-01-10T03:25:34.223Z,82.86
2023-01-10T03:28:23.635Z,83.95
2023-01-10T03:30:55.199Z,83.33
2023-01-10T03:33:27.535Z,82.99
2023-01-10T03:36:16.981Z,82.91
2023-01-10T03:38:55.269Z,82.45
2023-01-10T03:41:34.015Z,82.67
2023-01-10T03:44:35.392Z,82.59
2023-01-10T03:47:09.828Z,82.33
2023-01-10T03:49:40.240Z,82.11
2023-01-10T03:52:10.791Z,81.78
2023-01-10T03:54:38.124Z,81.56
2023-01-10T03:57:06.276Z,81.16
2023-01-10T03:59:33.148Z,81.16
2023-01-10T04:02:00.286Z,81.06
2023-01-10T04:04:27.411Z,81.19
2023-01-10T04:06:54.296Z,81.11
2023-01-10T04:09:21.296Z,81.24
2023-01-10T04:11:48.403Z,81.20
2023-01-10T04:14:15.373Z,81.02
2023-01-10T04:16:42.469Z,81.59
2023-01-10T04:19:09.609Z,81.73
2023-01-10T04:21:36.714Z,81.59
2023-01-10T04:24:03.961Z,81.42
2023-01-10T04:26:30.910Z,81.80
2023-01-10T04:28:57.991Z,81.59
2023-01-10T04:31:27.066Z,81.76
2023-01-10T04:33:54.312Z,82.02
2023-01-10T04:36:21.333Z,81.57
2023-01-10T04:38:48.294Z,81.86
2023-01-10T04:41:15.551Z,81.86
2023-01-10T04:43:42.586Z,81.45
2023-01-10T04:46:09.770Z,81.34
2023-01-10T04:48:37.743Z,81.53
2023-01-10T04:51:04.787Z,81.42
2023-01-10T04:53:32.051Z,81.08
2023-01-10T04:56:05.980Z,81.19
2023-01-10T04:58:34.782Z,81.13
2023-01-10T05:01:08.885Z,81.21
2023-01-10T05:03:36.401Z,81.77
2023-01-10T05:06:03.941Z,81.70
2023-01-10T05:08:31.352Z,81.55
2023-01-10T05:10:59.089Z,81.35
2023-01-10T05:13:26.555Z,81.20
2023-01-10T05:15:58.296Z,81.41
2023-01-10T05:18:26.592Z,81.26
2023-01-10T05:20:53.882Z,81.40
2023-01-10T05:23:20.744Z,81.15
2023-01-10T05:25:47.663Z,80.81
2023-01-10T05:28:14.763Z,80.86
2023-01-10T05:30:41.845Z,80.71
2023-01-10T05:33:08.771Z,80.32
2023-01-10T05:35:36.161Z,80.40
2023-01-10T05:38:03.211Z,80.35
2023-01-10T05:40:30.498Z,80.32
2023-01-10T05:42:57.713Z,80.01
2023-01-10T05:45:24.660Z,80.41
2023-01-10T05:47:51.580Z,80.09
2023-01-10T05:50:19.109Z,80.89
2023-01-10T05:52:45.964Z,80.80
2023-01-10T05:55:13.211Z,80.76
2023-01-10T05:57:40.432Z,80.65
2023-01-10T06:00:08.098Z,80.53
2023-01-10T06:02:41.205Z,80.52
2023-01-10T06:05:08.777Z,80.57
2023-01-10T06:07:35.601Z,80.51
2023-01-10T06:10:02.852Z,80.43
2023-01-10T06:12:30.023Z,80.43
2023-01-10T06:14:56.949Z,80.07
2023-01-10T06:17:23.973Z,79.87
2023-01-10T06:19:52.308Z,79.89
2023-01-10T06:22:19.252Z,79.85
2023-01-10T06:24:46.414Z,79.44
2023-01-10T06:27:14.861Z,79.51
2023-01-10T06:29:41.828Z,79.67
2023-01-10T06:32:08.778Z,79.82
2023-01-10T06:34:35.812Z,80.08
2023-01-10T06:37:02.898Z,79.85
2023-01-10T06:39:30.062Z,79.80
2023-01-10T06:41:56.985Z,79.51
2023-01-10T06:44:24.000Z,79.41
2023-01-10T06:46:50.883Z,79.43
2023-01-10T06:49:17.925Z,79.80
2023-01-10T06:51:44.830Z,80.14
2023-01-10T06:54:11.743Z,80.42
2023-01-10T06:56:39.440Z,80.33
2023-01-10T06:59:08.425Z,81.10
2023-01-10T07:01:35.742Z,81.88
2023-01-10T07:04:02.808Z,82.34
2023-01-10T07:06:30.132Z,82.36
2023-01-10T07:08:57.362Z,82.51
2023-01-10T07:11:24.612Z,82.66
2023-01-10T07:13:53.488Z,83.30
2023-01-10T07:16:20.602Z,84.28
2023-01-10T07:18:47.544Z,84.78
2023-01-10T07:21:15.576Z,84.98
2023-01-10T07:23:43.356Z,85.35
2023-01-10T07:26:12.036Z,85.89
2023-01-10T07:28:39.040Z,86.16
2023-01-10T07:31:06.350Z,86.45
2023-01-10T07:33:33.326Z,86.69
2023-01-10T07:36:01.747Z,87.21
2023-01-10T07:38:29.752Z,87.85
2023-01-10T07:40:56.823Z,88.03
2023-01-10T07:43:23.910Z,88.01
2023-01-10T07:45:50.844Z,88.00
2023-01-10T07:48:18.029Z,88.43
2023-01-10T07:50:45.433Z,88.38
2023-01-10T07:53:12.594Z,88.32
2023-01-10T07:55:39.889Z,88.68
2023-01-10T07:58:08.468Z,89.04
2023-01-10T08:00:35.630Z,89.07
2023-01-10T08:03:02.850Z,89.48
2023-01-10T08:05:29.817Z,89.69
2023-01-10T08:08:00.198Z,90.04
2023-01-10T08:10:27.725Z,90.21
2023-01-10T08:15:39.206Z,90.38
2023-01-10T08:18:06.143Z,90.53
2023-01-10T08:20:32.983Z,90.59
2023-01-10T08:23:00.526Z,90.64
2023-01-10T08:25:27.726Z,90.23
2023-01-10T08:27:54.866Z,90.57
2023-01-10T08:30:23.415Z,90.22
2023-01-10T08:32:52.343Z,90.40
2023-01-10T08:35:19.349Z,90.27
2023-01-10T08:37:46.276Z,90.21
2023-01-10T08:40:13.314Z,90.00
2023-01-10T08:42:40.397Z,90.43
2023-01-10T08:45:07.889Z,90.93
2023-01-10T08:47:37.589Z,90.94
2023-01-10T08:50:07.889Z,90.79
2023-01-10T08:52:35.343Z,90.53
2023-01-10T08:55:02.331Z,90.47
2023-01-10T08:57:32.381Z,90.54
2023-01-10T08:59:59.691Z,90.50
2023-01-10T09:02:26.662Z,91.20
2023-01-10T09:04:53.600Z,92.50
2023-01-10T09:07:20.618Z,92.61
2023-01-10T09:09:47.504Z,92.22
2023-01-10T09:12:33.414Z,91.95
2023-01-10T09:15:00.379Z,92.04
2023-01-10T09:17:27.530Z,91.85
2023-01-10T09:19:56.193Z,91.50
2023-01-10T09:22:23.782Z,91.90
2023-01-10T09:24:50.613Z,94.70
2023-01-10T09:27:17.506Z,95.95
2023-01-10T09:29:44.510Z,97.55
2023-01-10T09:32:11.791Z,98.53
2023-01-10T09:34:38.707Z,97.98
2023-01-10T09:37:05.617Z,97.61
2023-01-10T09:39:34.054Z,99.23
2023-01-10T09:42:06.958Z,98.48
2023-01-10T09:44:49.669Z,97.61
2023-01-10T09:47:22.368Z,96.92
2023-01-10T09:50:48.375Z,97.87
2023-01-10T09:53:20.686Z,99.48
2023-01-10T09:55:54.493Z,99.33
2023-01-10T09:58:27.718Z,98.74
2023-01-10T10:01:00.311Z,98.31
2023-01-10T10:03:43.442Z,99.80
2023-01-10T10:06:13.257Z,100.00
2023-01-10T10:08:42.109Z,100.00
2023-01-10T10:11:19.424Z,100.00
2023-01-10T10:14:12.762Z,100.00
2023-01-10T10:16:54.779Z,100.00
2023-01-10T10:19:40.462Z,100.00
2023-01-10T10:22:19.906Z,100.00
2023-01-10T10:24:56.233Z,100.00
2023-01-10T10:27:35.510Z,100.00
2023-01-10T10:30:08.510Z,100.00
2023-01-10T10:32:43.996Z,100.00
2023-01-10T10:35:18.072Z,100.00
2023-01-10T10:37:55.123Z,100.00
2023-01-10T10:40:32.723Z,100.00
2023-01-10T10:43:07.557Z,100.00
2023-01-10T10:45:52.586Z,100.00
2023-01-10T10:48:33.717Z,100.00
2023-01-10T10:51:23.598Z,100.00
2023-01-10T10:53:51.036Z,100.00
2023-01-10T10:56:25.128Z,100.00
2023-01-10T10:58:55.596Z,100.00
2023-01-10T11:01:26.255Z,100.00
2023-01-10T11:04:00.933Z,100.00
2023-01-10T11:06:33.180Z,99.60
2023-01-10T11:09:04.957Z,100.00
2023-01-10T11:11:44.563Z,100.00
2023-01-10T11:14:13.035Z,100.00
2023-01-10T11:16:44.970Z,100.00
2023-01-10T11:19:18.606Z,100.00
2023-01-10T11:22:03.814Z,100.00
2023-01-10T11:24:55.347Z,100.00
2023-01-10T11:27:31.861Z,100.00
2023-01-10T11:30:08.038Z,100.00
2023-01-10T11:32:38.565Z,100.00
2023-01-10T11:35:17.732Z,100.00
2023-01-10T11:38:06.934Z,100.00
2023-01-10T11:40:34.655Z,100.00
2023-01-10T11:43:27.261Z,100.00
2023-01-10T11:45:57.722Z,100.00
2023-01-10T11:48:53.238Z,100.00
2023-01-10T11:51:25.016Z,100.00
2023-01-10T11:54:00.957Z,100.00
2023-01-10T11:56:33.903Z,100.00
2023-01-10T11:59:12.448Z,100.00
2023-01-10T12:02:16.706Z,100.00
2023-01-10T12:04:47.662Z,100.00
2023-01-10T12:07:14.960Z,100.00
2023-01-10T12:09:42.987Z,100.00
2023-01-10T12:12:27.911Z,100.00
2023-01-10T12:14:57.798Z,100.00
2023-01-10T12:17:30.956Z,100.00
2023-01-10T12:20:00.712Z,100.00
2023-01-10T12:22:42.763Z,100.00
2023-01-10T12:25:20.605Z,100.00
2023-01-10T12:27:50.480Z,100.00
2023-01-10T12:30:41.563Z,100.00
2023-01-10T12:33:17.545Z,100.00
2023-01-10T12:36:09.064Z,100.00
2023-01-10T12:39:11.302Z,100.00
2023-01-10T12:42:28.278Z,100.00
2023-01-10T12:45:07.223Z,100.00
2023-01-10T12:47:46.545Z,100.00
2023-01-10T12:50:22.695Z,100.00
2023-01-10T12:53:12.333Z,100.00
2023-01-10T12:55:43.564Z,100.00
2023-01-10T12:58:21.970Z,100.00
2023-01-10T13:00:56.321Z,100.00
2023-01-10T13:03:33.188Z,100.00
2023-01-10T13:06:01.383Z,100.00
2023-01-10T13:08:32.410Z,100.00
2023-01-10T13:11:00.827Z,100.00
2023-01-10T13:13:43.954Z,100.00
2023-01-10T13:16:24.397Z,100.00
2023-01-10T13:19:27.916Z,100.00
2023-01-10T13:22:19.515Z,100.00
2023-01-10T13:25:01.108Z,100.00
2023-01-10T13:27:35.424Z,100.00
2023-01-10T13:30:04.315Z,100.00
2023-01-10T13:32:34.986Z,100.00
2023-01-10T13:35:19.483Z,100.00
2023-01-10T13:37:54.119Z,100.00
2023-01-10T13:40:27.566Z,100.00
2023-01-10T13:43:34.441Z,100.00
2023-01-10T13:46:17.070Z,100.00
2023-01-10T13:48:50.299Z,100.00
2023-01-10T13:51:22.366Z,100.00
2023-01-10T13:53:51.843Z,100.00
2023-01-10T13:56:35.798Z,100.00
2023-01-10T13:59:17.546Z,100.00
2023-01-10T14:02:09.267Z,100.00
2023-01-10T14:04:40.717Z,100.00
2023-01-10T14:07:39.681Z,100.00
2023-01-10T14:10:22.772Z,100.00
2023-01-10T14:12:57.129Z,100.00
2023-01-10T14:15:31.754Z,100.00
2023-01-10T14:18:08.216Z,100.00
2023-01-10T14:20:36.636Z,100.00
2023-01-10T14:23:28.697Z,100.00
2023-01-10T14:26:00.752Z,100.00
2023-01-10T14:28:41.129Z,100.00
2023-01-10T14:31:20.662Z,100.00
2023-01-10T14:33:48.277Z,100.00
2023-01-10T14:36:28.497Z,100.00
2023-01-10T14:39:02.055Z,100.00
2023-01-10T14:41:40.045Z,100.00
2023-01-10T14:44:19.187Z,100.00
2023-01-10T14:46:51.895Z,100.00
2023-01-10T14:49:29.793Z,100.00
2023-01-10T14:52:22.463Z,100.00
2023-01-10T14:55:10.087Z,100.00
2023-01-10T14:57:37.111Z,100.00
2023-01-10T15:00:17.731Z,100.00
2023-01-10T15:02:46.559Z,100.00
2023-01-10T15:05:46.472Z,100.00
2023-01-10T15:08:31.476Z,100.00
2023-01-10T15:11:08.174Z,100.00
2023-01-10T15:14:03.677Z,100.00
2023-01-10T15:16:32.097Z,100.00
2023-01-10T15:18:59.349Z,100.00
2023-01-10T15:21:27.093Z,100.00
2023-01-10T15:23:55.172Z,100.00
2023-01-10T15:26:29.395Z,100.00
2023-01-10T15:29:24.127Z,100.00
2023-01-10T15:31:53.600Z,100.00
2023-01-10T15:34:24.030Z,100.00
2023-01-10T15:36:55.197Z,100.00
2023-01-10T15:39:31.750Z,100.00
2023-01-10T15:42:03.792Z,100.00
2023-01-10T15:44:36.688Z,100.00
2023-01-10T15:47:04.654Z,100.00
2023-01-10T15:49:31.655Z,100.00
2023-01-10T15:51:58.851Z,100.00
2023-01-10T15:54:25.884Z,100.00
2023-01-10T15:56:57.931Z,100.00
2023-01-10T15:59:39.046Z,100.00
2023-01-10T16:02:31.828Z,100.00
2023-01-10T16:05:07.814Z,100.00
2023-01-10T16:07:42.127Z,100.00
2023-01-10T16:10:19.889Z,100.00
2023-01-10T16:13:05.496Z,100.00
2023-01-10T16:15:35.650Z,100.00
2023-01-10T16:18:02.795Z,100.00
2023-01-10T16:20:34.666Z,100.00
2023-01-10T16:23:03.681Z,100.00
2023-01-10T16:25:37.416Z,100.00
2023-01-10T16:28:10.614Z,100.00
2023-01-10T16:30:40.653Z,100.00
2023-01-10T16:33:12.970Z,100.00
2023-01-10T16:35:39.887Z,100.00
2023-01-10T16:38:08.272Z,100.00
2023-01-10T16:40:38.663Z,100.00
2023-01-10T16:43:17.914Z,100.00
2023-01-10T16:45:46.946Z,100.00
2023-01-10T16:48:14.687Z,100.00
2023-01-10T16:50:42.546Z,100.00
2023-01-10T16:53:17.255Z,100.00
2023-01-10T16:55:47.446Z,100.00
2023-01-10T16:58:15.539Z,100.00
2023-01-10T17:00:44.725Z,100.00
2023-01-10T17:03:13.277Z,100.00
2023-01-10T17:05:40.577Z,100.00
2023-01-10T17:08:15.723Z,100.00
2023-01-10T17:10:43.765Z,100.00
2023-01-10T17:13:11.991Z,100.00
2023-01-10T17:15:39.061Z,100.00
2023-01-10T17:18:06.100Z,100.00
2023-01-10T17:20:33.345Z,100.00
2023-01-10T17:23:00.155Z,100.00
2023-01-10T17:25:27.201Z,100.00
2023-01-10T17:27:54.314Z,100.00
2023-01-10T17:30:21.307Z,100.00
2023-01-10T17:32:48.271Z,100.00
2023-01-10T17:35:15.640Z,100.00
2023-01-10T17:37:42.727Z,100.00
2023-01-10T17:40:10.476Z,100.00
2023-01-10T17:42:37.369Z,100.00
2023-01-10T17:45:04.725Z,100.00
2023-01-10T17:47:32.094Z,100.00
2023-01-10T17:49:59.094Z,100.00
2023-01-10T17:52:26.008Z,100.00
2023-01-10T17:54:53.265Z,100.00
2023-01-10T17:57:20.298Z,100.00
2023-01-10T17:59:47.482Z,100.00
2023-01-10T18:02:18.570Z,100.00
2023-01-10T18:04:46.020Z,100.00
2023-01-10T18:07:13.265Z,100.00
2023-01-10T18:09:40.537Z,100.00
2023-01-10T18:12:07.957Z,100.00
2023-01-10T18:14:37.843Z,100.00
2023-01-10T18:17:08.405Z,100.00
2023-01-10T18:19:36.448Z,100.00
2023-01-10T18:22:24.055Z,100.00
2023-01-10T18:24:52.810Z,100.00
2023-01-10T18:27:20.748Z,100.00
2023-01-10T18:29:49.148Z,100.00
2023-01-10T18:32:16.353Z,100.00
2023-01-10T18:34:43.580Z,100.00
2023-01-10T18:37:11.110Z,100.00
2023-01-10T18:39:38.260Z,100.00
2023-01-10T18:42:05.285Z,100.00
2023-01-10T18:44:32.462Z,100.00
2023-01-10T18:46:59.464Z,100.00
2023-01-10T18:49:26.432Z,100.00
2023-01-10T18:51:53.326Z,100.00
2023-01-10T18:54:20.313Z,100.00
2023-01-10T18:56:47.615Z,100.00
2023-01-10T18:59:15.336Z,100.00
2023-01-10T19:01:42.448Z,100.00
2023-01-10T19:04:11.346Z,100.00
2023-01-10T19:06:38.454Z,100.00
2023-01-10T19:09:05.879Z,100.00
2023-01-10T19:11:32.925Z,100.00
2023-01-10T19:14:00.084Z,100.00
2023-01-10T19:16:33.909Z,100.00
2023-01-10T19:19:06.789Z,100.00
2023-01-10T19:21:34.428Z,100.00
2023-01-10T19:24:04.466Z,100.00
2023-01-10T19:26:32.545Z,100.00
2023-01-10T19:28:59.838Z,100.00
2023-01-10T19:31:29.019Z,100.00
2023-01-10T19:33:59.828Z,100.00
2023-01-10T19:36:27.764Z,100.00
2023-01-10T19:38:58.774Z,100.00
2023-01-10T19:41:27.601Z,100.00
2023-01-10T19:43:57.143Z,100.00
2023-01-10T19:46:24.876Z,100.00
2023-01-10T19:48:51.863Z,100.00
2023-01-10T19:51:18.876Z,100.00
2023-01-10T19:53:46.696Z,100.00
2023-01-10T19:56:23.109Z,100.00
2023-01-10T19:58:50.766Z,100.00
2023-01-10T20:01:29.349Z,100.00
2023-01-10T20:03:58.333Z,100.00
2023-01-10T20:06:27.233Z,100.00
2023-01-10T20:08:55.661Z,100.00
2023-01-10T20:11:25.248Z,100.00
2023-01-10T20:13:52.630Z,100.00
2023-01-10T20:16:21.912Z,100.00
2023-01-10T20:18:50.229Z,100.00
2023-01-10T20:21:18.459Z,100.00
2023-01-10T20:23:46.586Z,100.00
2023-01-10T20:26:23.215Z,100.00
2023-01-10T20:28:50.840Z,100.00
2023-01-10T20:31:21.257Z,100.00
2023-01-10T20:33:49.437Z,100.00
2023-01-10T20:36:22.448Z,100.00
2023-01-10T20:38:50.330Z,100.00
2023-01-10T20:41:23.496Z,100.00
2023-01-10T20:43:51.554Z,100.00
2023-01-10T20:46:20.800Z,100.00
2023-01-10T20:48:47.760Z,100.00
2023-01-10T20:51:20.772Z,100.00
2023-01-10T20:53:49.305Z,100.00
2023-01-10T20:56:19.765Z,100.00
2023-01-10T20:58:47.588Z,100.00
2023-01-10T21:01:24.977Z,100.00
2023-01-10T21:03:56.381Z,99.01
2023-01-10T21:06:24.289Z,99.63
2023-01-10T21:08:51.825Z,98.38
2023-01-10T21:11:20.338Z,99.07
2023-01-10T21:13:47.668Z,98.22
2023-01-10T21:16:16.343Z,98.03
2023-01-10T21:18:44.912Z,98.71
2023-01-10T21:21:14.259Z,97.35
2023-01-10T21:23:41.843Z,97.21
2023-01-10T21:26:12.003Z,96.45
2023-01-10T21:28:46.715Z,96.20
2023-01-10T21:31:19.536Z,96.03
2023-01-10T21:33:46.994Z,95.42
2023-01-10T21:36:13.972Z,94.38
2023-01-10T21:38:41.750Z,94.34
2023-01-10T21:41:39.524Z,94.39
2023-01-10T21:44:07.451Z,94.33
2023-01-10T21:46:34.971Z,94.51
2023-01-10T21:49:02.597Z,94.41
2023-01-10T21:51:29.770Z,94.54
2023-01-10T21:53:57.711Z,94.22
2023-01-10T21:56:25.062Z,93.61
2023-01-10T21:58:52.384Z,94.33
2023-01-10T22:01:19.516Z,93.50
2023-01-10T22:03:46.706Z,92.59
2023-01-10T22:06:13.913Z,93.47
2023-01-10T22:08:41.449Z,92.35
2023-01-10T22:11:10.575Z,92.98
2023-01-10T22:13:38.131Z,93.21
2023-01-10T22:16:05.469Z,93.22
2023-01-10T22:18:33.055Z,94.33
2023-01-10T22:20:59.979Z,93.16
2023-01-10T22:23:29.640Z,93.19
2023-01-10T22:26:04.009Z,93.53
2023-01-10T22:28:31.719Z,92.44
2023-01-10T22:30:59.080Z,91.69
2023-01-10T22:33:31.339Z,91.53
2023-01-10T22:36:10.357Z,90.67
2023-01-10T22:38:37.634Z,91.08
2023-01-10T22:41:12.464Z,90.39
2023-01-10T22:43:39.962Z,90.64
2023-01-10T22:46:07.645Z,90.51
2023-01-10T22:48:36.006Z,89.17
2023-01-10T22:51:03.132Z,90.47
2023-01-10T22:53:30.180Z,90.34
2023-01-10T22:56:00.384Z,89.83
2023-01-10T22:58:27.719Z,89.83
2023-01-10T23:00:55.421Z,90.86
2023-01-10T23:03:23.815Z,90.87
2023-01-10T23:05:56.469Z,89.22
2023-01-10T23:08:24.734Z,88.13
2023-01-10T23:10:53.936Z,87.22
2023-01-10T23:13:22.433Z,87.43
2023-01-10T23:16:06.236Z,86.80
2023-01-10T23:18:36.206Z,85.99
2023-01-10T23:21:05.129Z,85.58
2023-01-10T23:23:32.319Z,85.03
2023-01-10T23:26:05.249Z,85.04
2023-01-10T23:28:35.402Z,84.95
2023-01-10T23:31:03.215Z,84.91
2023-01-10T23:33:32.148Z,85.20
2023-01-10T23:35:59.742Z,86.16
2023-01-10T23:38:27.133Z,86.31
2023-01-10T23:40:54.612Z,86.42
2023-01-10T23:43:22.203Z,86.45
2023-01-10T23:45:49.467Z,86.10
2023-01-10T23:48:16.885Z,86.41
2023-01-10T23:53:28.173Z,86.00
2023-01-10T23:55:56.918Z,86.41
2023-01-10T23:58:23.994Z,86.79
